createdAt,value
2018-07-14T00:01:35.138Z,99.90
2018-07-14T00:04:03.624Z,99.90
2018-07-14T00:06:32.082Z,99.90
2018-07-14T00:09:00.587Z,99.90
2018-07-14T00:11:29.016Z,99.90
2018-07-14T00:13:57.499Z,99.90
2018-07-14T00:16:26.423Z,99.90
2018-07-14T00:18:55.049Z,99.90
2018-07-14T00:21:23.796Z,99.90
2018-07-14T00:23:52.264Z,99.90
2018-07-14T00:26:20.642Z,99.90
2018-07-14T00:28:49.108Z,99.90
2018-07-14T00:31:17.811Z,99.90
2018-07-14T00:33:46.258Z,99.90
2018-07-14T00:36:14.854Z,99.90
2018-07-14T00:38:43.284Z,99.90
2018-07-14T00:41:11.761Z,99.90
2018-07-14T00:43:40.607Z,99.90
2018-07-14T00:46:09.246Z,99.90
2018-07-14T00:48:37.655Z,99.90
2018-07-14T00:51:06.104Z,99.90
2018-07-14T00:53:34.493Z,99.90
2018-07-14T00:56:02.912Z,99.90
2018-07-14T00:58:31.330Z,99.90
2018-07-14T01:00:59.731Z,99.90
2018-07-14T01:03:28.120Z,99.90
2018-07-14T01:08:24.713Z,99.90
2018-07-14T01:10:53.081Z,99.90
2018-07-14T01:13:21.509Z,99.90
2018-07-14T01:15:50.072Z,99.90
2018-07-14T01:18:18.500Z,99.90
2018-07-14T01:20:46.894Z,99.90
2018-07-14T01:23:15.396Z,99.90
2018-07-14T01:25:44.293Z,99.90
2018-07-14T01:28:12.852Z,99.90
2018-07-14T01:30:41.272Z,99.90
2018-07-14T01:33:09.826Z,99.90
2018-07-14T01:35:38.216Z,99.90
2018-07-14T01:38:06.644Z,99.90
2018-07-14T01:40:35.060Z,99.90
2018-07-14T01:43:03.465Z,99.90
2018-07-14T01:45:31.924Z,99.90
2018-07-14T01:48:00.316Z,99.90
2018-07-14T01:50:28.737Z,99.90
2018-07-14T01:52:57.124Z,99.90
2018-07-14T01:55:25.872Z,99.90
2018-07-14T01:57:54.236Z,99.90
2018-07-14T02:00:22.639Z,99.90
2018-07-14T02:02:51.056Z,99.90
2018-07-14T02:05:19.491Z,99.90
2018-07-14T02:07:47.900Z,99.90
2018-07-14T02:10:16.408Z,99.90
2018-07-14T02:15:13.033Z,99.90
2018-07-14T02:17:41.419Z,99.90
2018-07-14T02:20:09.958Z,99.90
2018-07-14T02:22:38.356Z,99.90
2018-07-14T02:25:06.759Z,99.90
2018-07-14T02:27:35.180Z,99.90
2018-07-14T02:30:03.713Z,99.90
2018-07-14T02:32:32.202Z,99.90
2018-07-14T02:35:00.646Z,99.90
2018-07-14T02:37:29.134Z,99.90
2018-07-14T02:39:57.527Z,99.90
2018-07-14T02:42:25.923Z,99.90
2018-07-14T02:44:54.472Z,99.90
2018-07-14T02:47:22.895Z,99.90
2018-07-14T02:49:51.281Z,99.90
2018-07-14T02:52:19.800Z,99.90
2018-07-14T02:54:48.514Z,99.90
2018-07-14T02:57:16.948Z,99.90
2018-07-14T02:59:45.427Z,99.90
2018-07-14T03:02:13.825Z,99.90
2018-07-14T03:04:42.316Z,99.90
2018-07-14T03:07:10.720Z,99.90
2018-07-14T03:09:39.128Z,99.90
2018-07-14T03:12:07.563Z,99.90
2018-07-14T03:14:36.055Z,99.90
2018-07-14T03:17:04.849Z,99.90
2018-07-14T03:19:33.445Z,99.90
2018-07-14T03:22:01.749Z,99.90
2018-07-14T03:24:30.197Z,99.90
2018-07-14T03:26:59.388Z,99.90
2018-07-14T03:29:27.848Z,99.90
2018-07-14T03:31:56.429Z,99.90
2018-07-14T03:34:24.816Z,99.90
2018-07-14T03:36:53.321Z,99.90
2018-07-14T03:39:21.726Z,99.90
2018-07-14T03:41:50.237Z,99.90
2018-07-14T03:44:18.729Z,99.90
2018-07-14T03:46:47.136Z,99.90
2018-07-14T03:49:15.549Z,99.90
2018-07-14T03:51:43.929Z,99.90
2018-07-14T03:54:13.309Z,99.90
2018-07-14T03:56:41.789Z,99.90
2018-07-14T03:59:10.199Z,99.90
2018-07-14T04:01:38.605Z,99.90
2018-07-14T04:04:07.000Z,99.90
2018-07-14T04:06:35.440Z,99.90
2018-07-14T04:09:04.545Z,99.90
2018-07-14T04:11:32.980Z,99.90
2018-07-14T04:14:01.353Z,99.90
2018-07-14T04:16:29.809Z,99.90
2018-07-14T04:18:58.301Z,99.90
2018-07-14T04:21:26.786Z,99.90
2018-07-14T04:23:55.284Z,99.90
2018-07-14T04:26:23.680Z,99.90
2018-07-14T04:28:52.112Z,99.90
2018-07-14T04:31:20.490Z,99.90
2018-07-14T04:33:48.972Z,99.90
2018-07-14T04:36:17.381Z,99.90
2018-07-14T04:38:45.783Z,99.90
2018-07-14T04:41:14.212Z,99.90
2018-07-14T04:43:42.584Z,99.90
2018-07-14T04:46:10.970Z,99.90
2018-07-14T04:48:39.380Z,99.90
2018-07-14T04:51:07.828Z,99.90
2018-07-14T04:53:36.311Z,99.90
2018-07-14T04:56:04.696Z,99.90
2018-07-14T04:58:33.173Z,99.90
2018-07-14T05:01:01.612Z,99.90
2018-07-14T05:03:30.001Z,99.90
2018-07-14T05:05:58.514Z,99.90
2018-07-14T05:08:27.227Z,99.90
2018-07-14T05:10:55.620Z,99.90
2018-07-14T05:13:24.065Z,99.90
2018-07-14T05:15:52.596Z,99.90
2018-07-14T05:18:21.040Z,99.90
2018-07-14T05:20:49.460Z,99.90
2018-07-14T05:23:17.913Z,99.90
2018-07-14T05:25:46.308Z,99.90
2018-07-14T05:28:14.744Z,99.90
2018-07-14T05:30:43.157Z,99.90
2018-07-14T05:33:11.545Z,99.90
2018-07-14T05:35:39.985Z,99.90
2018-07-14T05:38:08.368Z,99.90
2018-07-14T05:40:36.816Z,99.90
2018-07-14T05:43:05.324Z,99.90
2018-07-14T05:45:33.709Z,99.90
2018-07-14T05:48:02.392Z,99.90
2018-07-14T05:50:30.832Z,99.90
2018-07-14T05:55:27.538Z,99.90
2018-07-14T05:57:56.077Z,99.90
2018-07-14T06:00:24.596Z,99.90
2018-07-14T06:02:53.076Z,99.90
2018-07-14T06:05:21.539Z,99.90
2018-07-14T06:07:50.194Z,99.90
2018-07-14T06:10:18.532Z,99.90
2018-07-14T06:12:47.000Z,99.90
2018-07-14T06:15:15.554Z,99.90
2018-07-14T06:17:44.006Z,99.90
2018-07-14T06:20:12.478Z,99.90
2018-07-14T06:22:41.113Z,99.90
2018-07-14T06:25:09.614Z,99.90
2018-07-14T06:27:38.049Z,99.90
2018-07-14T06:30:07.853Z,99.90
2018-07-14T06:32:36.296Z,99.90
2018-07-14T06:35:04.740Z,99.90
2018-07-14T06:37:33.495Z,99.90
2018-07-14T06:40:01.953Z,99.90
2018-07-14T06:42:30.359Z,99.90
2018-07-14T06:44:58.829Z,99.90
2018-07-14T06:47:27.300Z,99.90
2018-07-14T06:49:55.739Z,99.90
2018-07-14T06:52:24.192Z,99.90
2018-07-14T06:54:52.567Z,99.90
2018-07-14T06:57:21.036Z,99.90
2018-07-14T06:59:49.583Z,99.90
2018-07-14T07:02:17.993Z,99.90
2018-07-14T07:04:46.420Z,99.90
2018-07-14T07:07:15.337Z,99.90
2018-07-14T07:09:43.962Z,99.90
2018-07-14T07:12:12.436Z,99.90
2018-07-14T07:14:40.848Z,99.90
2018-07-14T07:17:09.298Z,99.90
2018-07-14T07:19:38.752Z,99.90
2018-07-14T07:22:07.176Z,99.90
2018-07-14T07:24:35.681Z,99.90
2018-07-14T07:27:04.137Z,99.90
2018-07-14T07:29:32.727Z,99.90
2018-07-14T07:32:01.282Z,99.90
2018-07-14T07:34:29.822Z,99.90
2018-07-14T07:36:58.225Z,99.90
2018-07-14T07:39:26.688Z,99.90
2018-07-14T07:41:55.130Z,99.90
2018-07-14T07:44:23.559Z,99.90
2018-07-14T07:46:52.046Z,99.90
2018-07-14T07:49:20.510Z,99.90
2018-07-14T07:51:49.090Z,99.90
2018-07-14T07:54:17.593Z,99.90
2018-07-14T07:56:46.064Z,99.90
2018-07-14T07:59:14.859Z,99.90
2018-07-14T08:01:43.365Z,99.90
2018-07-14T08:04:11.776Z,99.90
2018-07-14T08:06:40.350Z,99.90
2018-07-14T08:09:09.240Z,99.90
2018-07-14T08:11:37.841Z,99.90
2018-07-14T08:14:06.286Z,99.90
2018-07-14T08:16:34.852Z,99.90
2018-07-14T08:19:03.405Z,99.90
2018-07-14T08:21:31.865Z,99.90
2018-07-14T08:24:00.284Z,99.90
2018-07-14T08:26:28.703Z,99.90
2018-07-14T08:28:57.265Z,99.90
2018-07-14T08:31:25.712Z,99.90
2018-07-14T08:33:54.164Z,99.90
2018-07-14T08:36:22.654Z,99.90
2018-07-14T08:38:51.084Z,99.90
2018-07-14T08:41:19.580Z,99.90
2018-07-14T08:43:48.032Z,99.90
2018-07-14T08:46:16.429Z,99.90
2018-07-14T08:48:44.935Z,99.90
2018-07-14T08:51:13.631Z,99.90
2018-07-14T08:53:42.662Z,99.90
2018-07-14T08:56:11.237Z,99.90
2018-07-14T08:58:39.746Z,99.90
2018-07-14T09:01:08.192Z,99.90
2018-07-14T09:03:36.917Z,99.90
2018-07-14T09:06:06.237Z,99.90
2018-07-14T09:08:34.696Z,99.90
2018-07-14T09:11:03.378Z,99.90
2018-07-14T09:13:31.808Z,99.90
2018-07-14T09:16:00.277Z,99.90
2018-07-14T09:18:28.711Z,99.90
2018-07-14T09:23:25.338Z,99.90
2018-07-14T09:25:53.986Z,99.90
2018-07-14T09:28:22.449Z,99.90
2018-07-14T09:30:50.868Z,99.90
2018-07-14T09:33:19.296Z,99.90
2018-07-14T09:38:15.926Z,99.90
2018-07-14T09:40:44.414Z,99.90
2018-07-14T09:43:12.860Z,99.90
2018-07-14T09:45:41.288Z,99.90
2018-07-14T09:48:09.791Z,99.90
2018-07-14T09:50:38.186Z,99.90
2018-07-14T09:53:06.833Z,99.90
2018-07-14T09:55:35.355Z,99.90
2018-07-14T09:58:03.778Z,99.90
2018-07-14T10:00:33.805Z,99.90
2018-07-14T10:03:03.293Z,99.90
2018-07-14T10:05:31.761Z,99.90
2018-07-14T10:08:00.352Z,99.90
2018-07-14T10:10:28.741Z,99.90
2018-07-14T10:12:57.151Z,99.90
2018-07-14T10:15:25.600Z,99.90
2018-07-14T10:17:54.012Z,99.90
2018-07-14T10:20:22.684Z,99.90
2018-07-14T10:22:51.131Z,99.90
2018-07-14T10:25:19.723Z,99.90
2018-07-14T10:27:48.064Z,99.90
2018-07-14T10:30:16.612Z,99.90
2018-07-14T10:32:45.084Z,99.90
2018-07-14T10:35:13.561Z,99.90
2018-07-14T10:37:41.988Z,99.90
2018-07-14T10:40:10.586Z,99.90
2018-07-14T10:42:39.057Z,99.90
2018-07-14T10:45:07.688Z,99.90
2018-07-14T10:47:36.114Z,99.90
2018-07-14T10:50:04.610Z,99.90
2018-07-14T10:52:33.122Z,99.90
2018-07-14T10:55:01.592Z,99.90
2018-07-14T10:57:29.993Z,99.90
2018-07-14T10:59:58.431Z,99.90
2018-07-14T11:02:26.964Z,99.90
2018-07-14T11:04:55.596Z,99.90
2018-07-14T11:07:24.162Z,99.90
2018-07-14T11:09:52.603Z,99.90
2018-07-14T11:12:21.079Z,99.90
2018-07-14T11:14:49.528Z,99.90
2018-07-14T11:17:17.978Z,99.90
2018-07-14T11:19:46.409Z,99.90
2018-07-14T11:22:14.880Z,99.90
2018-07-14T11:24:43.491Z,99.90
2018-07-14T11:27:11.927Z,99.90
2018-07-14T11:29:40.471Z,99.90
2018-07-14T11:32:09.127Z,99.90
2018-07-14T11:34:37.740Z,99.90
2018-07-14T11:37:06.580Z,99.90
2018-07-14T11:39:35.682Z,99.90
2018-07-14T11:42:04.564Z,99.90
2018-07-14T11:44:33.025Z,99.90
2018-07-14T11:47:01.549Z,99.90
2018-07-14T11:49:30.816Z,99.90
2018-07-14T11:51:59.640Z,99.90
2018-07-14T11:54:28.463Z,99.90
2018-07-14T11:56:56.933Z,99.90
2018-07-14T11:59:25.537Z,99.90
2018-07-14T12:01:53.984Z,99.90
2018-07-14T12:04:22.479Z,99.90
2018-07-14T12:06:50.899Z,99.90
2018-07-14T12:09:19.380Z,99.90
2018-07-14T12:11:47.945Z,99.90
2018-07-14T12:14:16.392Z,99.90
2018-07-14T12:16:44.912Z,99.90
2018-07-14T12:19:13.530Z,99.90
2018-07-14T12:21:41.940Z,99.90
2018-07-14T12:24:10.391Z,99.90
2018-07-14T12:26:38.885Z,99.90
2018-07-14T12:29:07.342Z,99.90
2018-07-14T12:31:35.853Z,99.90
2018-07-14T12:34:04.310Z,99.90
2018-07-14T12:36:32.958Z,99.90
2018-07-14T12:39:01.377Z,99.90
2018-07-14T12:41:29.824Z,99.90
2018-07-14T12:43:58.300Z,99.90
2018-07-14T12:46:26.732Z,99.90
2018-07-14T12:48:55.205Z,99.90
2018-07-14T12:51:23.705Z,99.90
2018-07-14T12:53:52.155Z,99.90
2018-07-14T12:56:20.921Z,99.90
2018-07-14T13:01:18.013Z,99.90
2018-07-14T13:03:46.731Z,99.90
2018-07-14T13:06:15.148Z,99.90
2018-07-14T13:08:43.636Z,99.90
2018-07-14T13:11:12.071Z,99.90
2018-07-14T13:13:40.577Z,99.90
2018-07-14T13:16:08.997Z,99.90
2018-07-14T13:18:37.453Z,99.90
2018-07-14T13:21:06.943Z,99.90
2018-07-14T13:23:35.799Z,99.90
2018-07-14T13:26:04.277Z,99.90
2018-07-14T13:28:34.308Z,99.70
2018-07-14T13:31:02.836Z,99.30
2018-07-14T13:33:31.313Z,98.90
2018-07-14T13:36:00.041Z,99.00
2018-07-14T13:38:28.457Z,98.90
2018-07-14T13:40:57.103Z,99.30
2018-07-14T13:43:25.538Z,99.20
2018-07-14T13:45:54.024Z,98.70
2018-07-14T13:50:50.750Z,99.10
2018-07-14T13:53:19.189Z,99.00
2018-07-14T13:55:47.612Z,98.50
2018-07-14T13:58:16.212Z,98.70
2018-07-14T14:00:44.636Z,98.60
2018-07-14T14:03:13.055Z,98.50
2018-07-14T14:05:41.507Z,98.00
2018-07-14T14:08:10.061Z,98.10
2018-07-14T14:10:38.529Z,98.30
2018-07-14T14:13:07.137Z,97.70
2018-07-14T14:15:35.580Z,97.70
2018-07-14T14:18:04.065Z,96.70
2018-07-14T14:20:32.492Z,96.60
2018-07-14T14:23:00.975Z,96.30
2018-07-14T14:25:29.408Z,96.50
2018-07-14T14:27:57.831Z,95.30
2018-07-14T14:30:26.359Z,95.90
2018-07-14T14:32:54.948Z,96.00
2018-07-14T14:35:23.390Z,96.30
2018-07-14T14:37:51.783Z,95.40
2018-07-14T14:40:20.256Z,96.10
2018-07-14T14:42:48.876Z,95.80
2018-07-14T14:45:17.325Z,96.00
2018-07-14T14:47:46.131Z,95.60
2018-07-14T14:50:14.741Z,95.50
2018-07-14T14:52:43.140Z,95.20
2018-07-14T14:55:11.613Z,95.40
2018-07-14T15:00:08.217Z,94.50
2018-07-14T15:02:36.668Z,94.50
2018-07-14T15:05:05.213Z,94.00
2018-07-14T15:07:33.818Z,94.50
2018-07-14T15:10:02.294Z,94.20
2018-07-14T15:12:30.717Z,93.60
2018-07-14T15:14:59.166Z,94.00
2018-07-14T15:17:27.609Z,94.00
2018-07-14T15:19:56.039Z,93.30
2018-07-14T15:22:24.565Z,92.90
2018-07-14T15:24:53.068Z,93.10
2018-07-14T15:27:21.540Z,93.20
2018-07-14T15:29:50.016Z,92.90
2018-07-14T15:32:18.828Z,92.20
2018-07-14T15:34:47.188Z,91.80
2018-07-14T15:37:15.815Z,91.10
2018-07-14T15:39:44.292Z,91.60
2018-07-14T15:42:12.757Z,92.30
2018-07-14T15:47:09.354Z,92.10
2018-07-14T15:49:37.812Z,91.40
2018-07-14T15:52:06.466Z,91.30
2018-07-14T15:54:35.010Z,91.20
2018-07-14T15:57:03.428Z,91.40
2018-07-14T15:59:31.904Z,90.00
2018-07-14T16:02:00.320Z,90.10
2018-07-14T16:04:28.788Z,88.20
2018-07-14T16:06:57.236Z,89.40
2018-07-14T16:09:25.732Z,89.60
2018-07-14T16:11:54.200Z,88.20
2018-07-14T16:14:22.641Z,85.00
2018-07-14T16:16:51.096Z,86.50
2018-07-14T16:19:19.561Z,84.50
2018-07-14T16:21:48.233Z,84.20
2018-07-14T16:24:16.923Z,86.00
2018-07-14T16:26:45.409Z,85.40
2018-07-14T16:29:13.824Z,86.30
2018-07-14T16:31:42.363Z,88.60
2018-07-14T16:34:10.749Z,84.60
2018-07-14T16:36:39.256Z,84.80
2018-07-14T16:39:09.149Z,84.40
2018-07-14T16:41:37.724Z,84.50
2018-07-14T16:44:06.132Z,85.70
2018-07-14T16:46:34.762Z,86.20
2018-07-14T16:49:03.260Z,85.00
2018-07-14T16:51:31.828Z,86.70
2018-07-14T16:54:00.329Z,86.40
2018-07-14T16:56:29.533Z,86.20
2018-07-14T16:58:58.009Z,83.80
2018-07-14T17:01:26.476Z,83.20
2018-07-14T17:03:54.905Z,83.00
2018-07-14T17:06:23.345Z,83.80
2018-07-14T17:08:51.877Z,83.20
2018-07-14T17:11:20.272Z,83.00
2018-07-14T17:13:49.329Z,84.40
2018-07-14T17:16:17.789Z,86.70
2018-07-14T17:18:46.368Z,85.30
2018-07-14T17:21:14.787Z,81.90
2018-07-14T17:23:43.240Z,83.40
2018-07-14T17:26:11.646Z,85.30
2018-07-14T17:28:40.110Z,84.50
2018-07-14T17:31:08.788Z,84.70
2018-07-14T17:33:37.443Z,84.30
2018-07-14T17:36:05.933Z,83.30
2018-07-14T17:38:34.483Z,83.40
2018-07-14T17:41:03.042Z,83.60
2018-07-14T17:45:59.901Z,84.80
2018-07-14T17:48:28.964Z,84.90
2018-07-14T17:50:57.397Z,84.80
2018-07-14T17:53:25.912Z,84.40
2018-07-14T17:55:54.420Z,85.50
2018-07-14T17:58:22.907Z,85.70
2018-07-14T18:00:51.637Z,85.50
2018-07-14T18:03:20.247Z,85.10
2018-07-14T18:05:48.684Z,85.00
2018-07-14T18:08:17.113Z,85.50
2018-07-14T18:10:45.624Z,85.90
2018-07-14T18:13:14.037Z,85.10
2018-07-14T18:15:42.610Z,85.70
2018-07-14T18:18:11.146Z,84.80
2018-07-14T18:20:39.676Z,85.00
2018-07-14T18:23:08.099Z,85.70
2018-07-14T18:25:36.525Z,87.50
2018-07-14T18:28:05.396Z,87.20
2018-07-14T18:30:33.891Z,87.70
2018-07-14T18:33:08.772Z,87.80
2018-07-14T18:35:37.311Z,88.10
2018-07-14T18:38:05.861Z,88.10
2018-07-14T18:40:34.281Z,88.70
2018-07-14T18:43:02.732Z,89.20
2018-07-14T18:45:31.191Z,89.50
2018-07-14T18:47:59.596Z,89.00
2018-07-14T18:50:28.052Z,89.60
2018-07-14T18:52:56.566Z,90.00
2018-07-14T18:55:25.065Z,90.30
2018-07-14T18:57:53.533Z,90.40
2018-07-14T19:00:22.125Z,90.60
2018-07-14T19:02:50.594Z,91.00
2018-07-14T19:05:19.101Z,91.10
2018-07-14T19:07:47.513Z,91.50
2018-07-14T19:10:16.210Z,91.60
2018-07-14T19:12:44.641Z,91.50
2018-07-14T19:15:13.138Z,91.70
2018-07-14T19:17:41.725Z,91.80
2018-07-14T19:20:10.413Z,91.90
2018-07-14T19:22:38.863Z,92.10
2018-07-14T19:25:07.233Z,92.50
2018-07-14T19:27:35.693Z,92.70
2018-07-14T19:30:04.529Z,93.00
2018-07-14T19:32:33.033Z,93.20
2018-07-14T19:35:01.512Z,93.50
2018-07-14T19:37:29.915Z,93.60
2018-07-14T19:39:58.763Z,92.70
2018-07-14T19:42:27.177Z,94.00
2018-07-14T19:44:55.752Z,94.20
2018-07-14T19:47:24.360Z,94.40
2018-07-14T19:49:52.767Z,94.60
2018-07-14T19:52:21.324Z,94.90
2018-07-14T19:54:49.742Z,95.00
2018-07-14T19:57:18.179Z,95.10
2018-07-14T19:59:46.730Z,95.20
2018-07-14T20:02:15.272Z,95.30
2018-07-14T20:04:43.752Z,95.50
2018-07-14T20:07:12.279Z,95.70
2018-07-14T20:09:40.748Z,96.00
2018-07-14T20:12:09.260Z,96.10
2018-07-14T20:14:38.002Z,96.60
2018-07-14T20:17:06.591Z,96.50
2018-07-14T20:19:35.082Z,96.60
2018-07-14T20:22:04.093Z,96.70
2018-07-14T20:24:32.632Z,96.90
2018-07-14T20:27:01.464Z,97.00
2018-07-14T20:29:29.927Z,97.20
2018-07-14T20:31:58.384Z,97.40
2018-07-14T20:34:26.924Z,97.50
2018-07-14T20:36:55.464Z,97.70
2018-07-14T20:39:23.980Z,97.90
2018-07-14T20:41:52.450Z,98.10
2018-07-14T20:44:21.036Z,98.30
2018-07-14T20:46:49.528Z,98.50
2018-07-14T20:49:18.111Z,98.70
2018-07-14T20:51:46.590Z,98.90
2018-07-14T20:54:15.105Z,99.10
2018-07-14T20:56:43.533Z,99.20
2018-07-14T20:59:12.092Z,99.50
2018-07-14T21:01:40.543Z,99.60
2018-07-14T21:04:08.970Z,99.80
2018-07-14T21:06:37.456Z,99.90
2018-07-14T21:09:06.701Z,99.90
2018-07-14T21:11:35.420Z,99.90
2018-07-14T21:14:04.225Z,99.90
2018-07-14T21:16:32.725Z,99.90
2018-07-14T21:19:01.216Z,99.90
2018-07-14T21:21:29.712Z,99.90
2018-07-14T21:23:58.369Z,99.90
2018-07-14T21:26:26.786Z,99.90
2018-07-14T21:28:55.293Z,99.90
2018-07-14T21:31:23.742Z,99.90
2018-07-14T21:36:21.048Z,99.90
2018-07-14T21:38:49.535Z,99.90
2018-07-14T21:41:17.965Z,99.90
2018-07-14T21:43:46.536Z,99.90
2018-07-14T21:46:14.980Z,99.90
2018-07-14T21:48:43.383Z,99.90
2018-07-14T21:51:11.832Z,99.90
2018-07-14T21:53:40.533Z,99.90
2018-07-14T21:56:09.019Z,99.90
2018-07-14T21:58:37.491Z,99.90
2018-07-14T22:01:11.216Z,99.90
2018-07-14T22:03:39.729Z,99.90
2018-07-14T22:06:08.363Z,99.90
2018-07-14T22:08:36.859Z,99.90
2018-07-14T22:11:05.372Z,99.90
2018-07-14T22:13:33.800Z,99.90
2018-07-14T22:16:02.185Z,99.90
2018-07-14T22:18:30.636Z,99.90
2018-07-14T22:20:59.067Z,99.90
2018-07-14T22:23:27.536Z,99.90
2018-07-14T22:25:55.993Z,99.90
2018-07-14T22:28:24.478Z,99.90
2018-07-14T22:30:52.909Z,99.90
2018-07-14T22:33:21.329Z,99.90
2018-07-14T22:35:49.797Z,99.90
2018-07-14T22:38:18.192Z,99.90
2018-07-14T22:40:46.764Z,99.90
2018-07-14T22:43:15.214Z,99.90
2018-07-14T22:45:43.668Z,99.90
2018-07-14T22:48:12.151Z,99.90
2018-07-14T22:50:40.612Z,99.90
2018-07-14T22:53:09.094Z,99.90
2018-07-14T22:55:37.530Z,99.90
2018-07-14T22:58:05.968Z,99.90
2018-07-14T23:00:34.455Z,99.90
2018-07-14T23:03:02.909Z,99.90
2018-07-14T23:05:31.357Z,99.90
2018-07-14T23:07:59.823Z,99.90
2018-07-14T23:10:28.339Z,99.90
2018-07-14T23:12:56.830Z,99.90
2018-07-14T23:15:25.240Z,99.90
2018-07-14T23:17:53.661Z,99.90
2018-07-14T23:22:50.264Z,99.90
2018-07-14T23:25:18.872Z,99.90
2018-07-14T23:27:47.320Z,99.90
2018-07-14T23:30:15.813Z,99.90
2018-07-14T23:32:44.204Z,99.90
2018-07-14T23:35:12.745Z,99.90
2018-07-14T23:37:41.273Z,99.90
2018-07-14T23:40:09.723Z,99.90
2018-07-14T23:42:38.150Z,99.90
2018-07-14T23:45:06.693Z,99.90
2018-07-14T23:47:35.139Z,99.90
2018-07-14T23:50:03.726Z,99.90
2018-07-14T23:52:32.150Z,99.90
2018-07-14T23:55:00.530Z,99.90
2018-07-14T23:57:28.977Z,99.90
2018-07-14T23:59:57.397Z,99.90
